Time;durP1;ratioP1;P1;durP2;ratioP2;P2;SDS_P1;SDS_P2;PMS_P1;PMS_P2;Temp;Humidity;BMP_temperature;BMP_pressure;BME280_temperature;BME280_humidity;BME280_pressure;Samples;Min_cycle;Max_cycle;Signal;HPM_P1;HPM_P2
2021/04/08 00:00:32;;;;;;;11.37;2.97;;;;;;;;;;5078527;28;20398;-70
2021/04/08 00:02:58;;;;;;;12.43;2.72;;;;;;;;;;5077055;28;20401;-70
2021/04/08 00:05:24;;;;;;;12.55;3.03;;;;;;;;;;5078615;28;20383;-70
2021/04/08 00:07:50;;;;;;;14.32;3.08;;;;;;;;;;5078130;28;20435;-70
2021/04/08 00:10:17;;;;;;;10.48;2.40;;;;;;;;;;5079173;28;21023;-70
2021/04/08 00:12:43;;;;;;;7.82;2.42;;;;;;;;;;5077030;28;20417;-70
2021/04/08 00:15:11;;;;;;;9.88;2.83;;;;;;;;;;5076527;28;20403;-70
2021/04/08 00:17:37;;;;;;;9.80;2.80;;;;;;;;;;5065079;28;20931;-70
2021/04/08 00:20:13;;;;;;;9.85;2.25;;;;;;;;;;5061785;28;20434;-70
2021/04/08 00:22:39;;;;;;;9.80;2.35;;;;;;;;;;5076555;28;20908;-70
2021/04/08 00:25:05;;;;;;;11.73;3.03;;;;;;;;;;5077160;28;20397;-70
2021/04/08 00:27:31;;;;;;;11.77;2.33;;;;;;;;;;5079321;28;20390;-71
2021/04/08 00:29:57;;;;;;;10.88;2.20;;;;;;;;;;5079142;28;20398;-70
2021/04/08 00:32:23;;;;;;;10.13;2.47;;;;;;;;;;5060909;28;20427;-70
2021/04/08 00:34:49;;;;;;;10.63;2.50;;;;;;;;;;5076500;28;20393;-70
2021/04/08 00:37:15;;;;;;;10.73;2.60;;;;;;;;;;5058948;28;20407;-70
2021/04/08 00:39:41;;;;;;;13.13;3.00;;;;;;;;;;5078295;28;20473;-70
2021/04/08 00:42:07;;;;;;;9.45;2.35;;;;;;;;;;5077249;28;20888;-70
2021/04/08 00:44:33;;;;;;;8.93;2.30;;;;;;;;;;5078102;28;21197;-70
2021/04/08 00:46:59;;;;;;;9.93;2.35;;;;;;;;;;5076868;28;20394;-70
2021/04/08 00:49:25;;;;;;;12.48;2.92;;;;;;;;;;5060653;28;20898;-71
2021/04/08 00:51:52;;;;;;;11.43;2.55;;;;;;;;;;5081735;28;20449;-72
2021/04/08 00:54:18;;;;;;;11.23;2.80;;;;;;;;;;5076887;28;20394;-70
2021/04/08 00:56:44;;;;;;;11.82;2.40;;;;;;;;;;5074727;28;20438;-70
2021/04/08 00:59:11;;;;;;;10.57;2.50;;;;;;;;;;5080403;28;20394;-70
2021/04/08 01:01:37;;;;;;;10.32;2.60;;;;;;;;;;5081583;28;20474;-70
2021/04/08 01:04:03;;;;;;;9.65;2.45;;;;;;;;;;5082192;28;21047;-70
2021/04/08 01:06:29;;;;;;;10.30;2.47;;;;;;;;;;5079564;28;20395;-70
2021/04/08 01:08:55;;;;;;;12.70;2.67;;;;;;;;;;5081347;28;20415;-71
2021/04/08 01:11:21;;;;;;;10.87;2.30;;;;;;;;;;5080563;28;20390;-71
2021/04/08 01:13:47;;;;;;;7.40;2.40;;;;;;;;;;5080107;28;20398;-70
2021/04/08 01:16:17;;;;;;;10.50;2.53;;;;;;;;;;5085095;28;20460;-70
2021/04/08 01:18:53;;;;;;;8.60;2.03;;;;;;;;;;5080117;28;20436;-70
2021/04/08 01:21:23;;;;;;;12.50;2.88;;;;;;;;;;5079182;28;21040;-71
2021/04/08 01:24:07;;;;;;;9.85;2.72;;;;;;;;;;5077791;28;20454;-71
2021/04/08 01:26:52;;;;;;;9.82;2.95;;;;;;;;;;5081688;28;20465;-70
2021/04/08 01:29:36;;;;;;;11.82;2.35;;;;;;;;;;5080333;28;20497;-70
2021/04/08 01:32:03;;;;;;;11.07;2.47;;;;;;;;;;5081750;28;20476;-71
2021/04/08 01:34:30;;;;;;;8.18;2.25;;;;;;;;;;5079960;28;20400;-71
2021/04/08 01:37:00;;;;;;;9.88;2.70;;;;;;;;;;5080822;28;20837;-70
2021/04/08 01:39:27;;;;;;;8.67;2.10;;;;;;;;;;5080754;28;20691;-70
2021/04/08 01:41:55;;;;;;;12.57;2.67;;;;;;;;;;5081361;28;20891;-70
2021/04/08 01:44:22;;;;;;;10.40;2.30;;;;;;;;;;5083539;28;20411;-70
2021/04/08 01:46:51;;;;;;;11.20;2.90;;;;;;;;;;5083160;28;20402;-70
2021/04/08 01:49:18;;;;;;;11.27;2.63;;;;;;;;;;5082181;28;20434;-70
2021/04/08 01:51:45;;;;;;;10.88;2.60;;;;;;;;;;5084891;28;20387;-70
2021/04/08 01:54:12;;;;;;;11.85;2.33;;;;;;;;;;5074914;28;20391;-70
2021/04/08 01:56:40;;;;;;;13.07;3.10;;;;;;;;;;5090594;28;20381;-70
2021/04/08 01:59:06;;;;;;;10.93;2.75;;;;;;;;;;5088662;28;20480;-70
2021/04/08 02:01:34;;;;;;;11.40;3.08;;;;;;;;;;5081993;28;20399;-70
2021/04/08 02:04:00;;;;;;;10.77;2.78;;;;;;;;;;5084547;28;20448;-70
2021/04/08 02:06:30;;;;;;;12.67;2.90;;;;;;;;;;5086863;28;20414;-70
2021/04/08 02:08:56;;;;;;;10.85;3.03;;;;;;;;;;5076880;28;20534;-70
2021/04/08 02:11:23;;;;;;;14.35;3.15;;;;;;;;;;5087586;28;20413;-70
2021/04/08 02:13:50;;;;;;;9.27;2.92;;;;;;;;;;5084007;28;20427;-70
2021/04/08 02:16:18;;;;;;;10.18;2.90;;;;;;;;;;5085575;28;20402;-70
2021/04/08 02:18:44;;;;;;;10.90;2.97;;;;;;;;;;5078569;28;21077;-70
2021/04/08 02:21:11;;;;;;;11.82;3.28;;;;;;;;;;5068096;28;20403;-70
2021/04/08 02:23:39;;;;;;;10.52;2.97;;;;;;;;;;5086722;28;20488;-72
2021/04/08 02:26:05;;;;;;;13.50;2.85;;;;;;;;;;5085420;28;20421;-70
2021/04/08 02:28:32;;;;;;;10.27;2.70;;;;;;;;;;5077823;28;20587;-71
2021/04/08 02:30:59;;;;;;;10.10;3.17;;;;;;;;;;5089611;28;20373;-70
2021/04/08 02:33:26;;;;;;;11.40;3.13;;;;;;;;;;5088738;28;20427;-70
2021/04/08 02:35:52;;;;;;;10.88;3.08;;;;;;;;;;5085581;28;20434;-70
2021/04/08 02:38:19;;;;;;;12.00;3.08;;;;;;;;;;5088774;28;20425;-70
2021/04/08 02:40:45;;;;;;;10.25;2.53;;;;;;;;;;5087811;28;20405;-70
2021/04/08 02:43:12;;;;;;;10.48;3.10;;;;;;;;;;5087974;28;20909;-70
2021/04/08 02:45:38;;;;;;;9.95;2.80;;;;;;;;;;5062702;28;20789;-70
2021/04/08 02:48:14;;;;;;;11.20;2.72;;;;;;;;;;5080359;28;20778;-70
2021/04/08 02:50:41;;;;;;;11.32;3.05;;;;;;;;;;5078345;28;20453;-70
2021/04/08 02:53:25;;;;;;;10.95;2.95;;;;;;;;;;5084100;28;20397;-70
2021/04/08 02:55:54;;;;;;;9.85;2.40;;;;;;;;;;5079202;28;20469;-70
2021/04/08 02:58:23;;;;;;;8.03;2.20;;;;;;;;;;5080491;28;21041;-70
2021/04/08 03:00:57;;;;;;;10.45;2.58;;;;;;;;;;5083796;28;20531;-70
2021/04/08 03:03:28;;;;;;;9.85;2.35;;;;;;;;;;5083255;28;20477;-70
2021/04/08 03:05:58;;;;;;;13.93;2.92;;;;;;;;;;5079838;28;20498;-71
2021/04/08 03:08:25;;;;;;;7.10;2.28;;;;;;;;;;5082177;28;21523;-70
2021/04/08 03:10:51;;;;;;;11.77;2.40;;;;;;;;;;5081372;28;20397;-70
2021/04/08 03:13:18;;;;;;;7.45;2.20;;;;;;;;;;5082823;28;20859;-70
2021/04/08 03:15:45;;;;;;;8.20;2.63;;;;;;;;;;5082865;28;20404;-70
2021/04/08 03:18:16;;;;;;;11.65;2.40;;;;;;;;;;5082914;28;20397;-71
2021/04/08 03:20:43;;;;;;;7.40;2.30;;;;;;;;;;5082849;28;20454;-70
2021/04/08 03:23:12;;;;;;;9.30;2.17;;;;;;;;;;5078865;28;20438;-71
2021/04/08 03:25:38;;;;;;;7.63;2.05;;;;;;;;;;5057282;28;21023;-70
2021/04/08 03:28:05;;;;;;;10.75;2.60;;;;;;;;;;5081756;28;20464;-70
2021/04/08 03:30:31;;;;;;;8.85;2.33;;;;;;;;;;5082358;28;20405;-70
2021/04/08 03:32:57;;;;;;;9.70;2.33;;;;;;;;;;5083514;28;20398;-70
2021/04/08 03:35:23;;;;;;;8.60;2.42;;;;;;;;;;5083463;28;20820;-70
2021/04/08 03:37:49;;;;;;;9.98;2.10;;;;;;;;;;5081638;28;20422;-70
2021/04/08 03:40:16;;;;;;;8.50;2.10;;;;;;;;;;5085418;28;20464;-70
2021/04/08 03:42:42;;;;;;;9.90;2.00;;;;;;;;;;5083292;28;20409;-70
2021/04/08 03:45:09;;;;;;;7.30;2.10;;;;;;;;;;5081646;28;20442;-70
2021/04/08 03:47:36;;;;;;;12.75;2.40;;;;;;;;;;5081678;28;20393;-70
2021/04/08 03:50:02;;;;;;;8.02;2.03;;;;;;;;;;5082058;28;20402;-70
2021/04/08 03:52:28;;;;;;;9.38;2.70;;;;;;;;;;5082482;28;20393;-71
2021/04/08 03:54:55;;;;;;;7.90;2.25;;;;;;;;;;5082673;28;20398;-70
2021/04/08 03:57:22;;;;;;;9.63;2.50;;;;;;;;;;5082248;28;20393;-70
2021/04/08 03:59:48;;;;;;;10.85;2.38;;;;;;;;;;5081970;28;20386;-70
2021/04/08 04:02:15;;;;;;;6.90;1.90;;;;;;;;;;5079207;28;21028;-70
2021/04/08 04:04:42;;;;;;;9.97;2.33;;;;;;;;;;5081727;28;20471;-70
2021/04/08 04:07:09;;;;;;;7.45;2.15;;;;;;;;;;5083317;28;20444;-70
2021/04/08 04:09:36;;;;;;;8.60;1.98;;;;;;;;;;5056676;28;20564;-70
2021/04/08 04:12:02;;;;;;;8.75;2.10;;;;;;;;;;5082711;28;20469;-70
2021/04/08 04:14:29;;;;;;;7.47;2.05;;;;;;;;;;5080107;28;20394;-71
2021/04/08 04:16:55;;;;;;;6.65;1.83;;;;;;;;;;5075068;28;20386;-70
2021/04/08 04:19:24;;;;;;;7.33;1.93;;;;;;;;;;5081353;28;20530;-70
2021/04/08 04:21:51;;;;;;;8.63;2.15;;;;;;;;;;5081741;28;21147;-70
2021/04/08 04:24:17;;;;;;;7.35;2.05;;;;;;;;;;5079680;28;20490;-71
2021/04/08 04:26:43;;;;;;;11.05;2.30;;;;;;;;;;5080831;28;20476;-71
2021/04/08 04:29:11;;;;;;;8.85;2.03;;;;;;;;;;5082401;28;21047;-70
2021/04/08 04:31:37;;;;;;;8.33;2.20;;;;;;;;;;5061409;28;20519;-71
2021/04/08 04:34:04;;;;;;;7.55;2.03;;;;;;;;;;5075147;28;20483;-72
2021/04/08 04:36:30;;;;;;;9.65;2.40;;;;;;;;;;5082176;28;20389;-70
2021/04/08 04:38:57;;;;;;;9.15;2.33;;;;;;;;;;5080678;28;20398;-70
2021/04/08 04:41:24;;;;;;;11.65;2.35;;;;;;;;;;5079651;28;20389;-70
2021/04/08 04:43:51;;;;;;;9.57;2.25;;;;;;;;;;5078858;28;20432;-70
2021/04/08 04:46:18;;;;;;;10.43;2.50;;;;;;;;;;5060693;28;20480;-70
2021/04/08 04:48:45;;;;;;;8.43;2.17;;;;;;;;;;5080230;28;20417;-70
2021/04/08 04:51:11;;;;;;;10.43;2.47;;;;;;;;;;5082901;28;20398;-70
2021/04/08 04:53:37;;;;;;;7.28;2.08;;;;;;;;;;5080472;28;20398;-70
2021/04/08 04:56:03;;;;;;;8.80;2.23;;;;;;;;;;5061840;28;20405;-70
2021/04/08 04:58:29;;;;;;;9.52;2.40;;;;;;;;;;5081701;28;20496;-71
2021/04/08 05:00:55;;;;;;;9.30;2.35;;;;;;;;;;5078130;28;20488;-71
2021/04/08 05:03:20;;;;;;;8.25;2.30;;;;;;;;;;5078279;28;20401;-70
2021/04/08 05:05:46;;;;;;;7.97;2.35;;;;;;;;;;5082063;28;20459;-70
2021/04/08 05:08:13;;;;;;;7.95;2.45;;;;;;;;;;5080067;28;20422;-71
2021/04/08 05:10:39;;;;;;;8.07;2.10;;;;;;;;;;5078788;28;21130;-70
2021/04/08 05:13:05;;;;;;;9.85;2.53;;;;;;;;;;5079857;28;20393;-70
2021/04/08 05:15:31;;;;;;;10.10;2.70;;;;;;;;;;5080357;28;20885;-71
2021/04/08 05:17:56;;;;;;;5.82;1.95;;;;;;;;;;5078922;28;20451;-70
2021/04/08 05:20:22;;;;;;;8.57;2.87;;;;;;;;;;5082624;28;20744;-70
2021/04/08 05:22:48;;;;;;;10.80;3.47;;;;;;;;;;5081691;28;20402;-72
2021/04/08 05:25:14;;;;;;;8.43;3.25;;;;;;;;;;5079306;28;20403;-70
2021/04/08 05:27:40;;;;;;;11.85;3.20;;;;;;;;;;5082136;28;20459;-70
2021/04/08 05:30:06;;;;;;;8.45;3.30;;;;;;;;;;5081890;28;20394;-71
2021/04/08 05:32:32;;;;;;;9.43;3.38;;;;;;;;;;5080376;28;21833;-71
2021/04/08 05:34:58;;;;;;;10.88;3.03;;;;;;;;;;5078731;28;20390;-71
2021/04/08 05:37:24;;;;;;;9.43;3.13;;;;;;;;;;5080744;28;20398;-71
2021/04/08 05:39:50;;;;;;;8.15;2.70;;;;;;;;;;5081797;28;20405;-70
2021/04/08 05:42:16;;;;;;;9.73;2.85;;;;;;;;;;5082357;28;20390;-71
2021/04/08 05:44:42;;;;;;;11.45;3.10;;;;;;;;;;5077537;28;20491;-71
2021/04/08 05:47:08;;;;;;;12.15;3.13;;;;;;;;;;5074909;28;20483;-70
2021/04/08 05:49:34;;;;;;;8.23;2.33;;;;;;;;;;5080830;28;20425;-70
2021/04/08 05:52:02;;;;;;;11.38;2.72;;;;;;;;;;5078354;28;20393;-71
2021/04/08 05:54:28;;;;;;;9.43;2.85;;;;;;;;;;5088153;28;20394;-70
2021/04/08 05:56:53;;;;;;;11.18;2.85;;;;;;;;;;5090269;28;20442;-70
2021/04/08 05:59:19;;;;;;;8.15;2.72;;;;;;;;;;5088449;28;20406;-71
2021/04/08 06:01:45;;;;;;;10.65;2.70;;;;;;;;;;5086145;28;20378;-70
2021/04/08 06:04:11;;;;;;;9.60;2.50;;;;;;;;;;5086317;28;20372;-70
2021/04/08 06:06:37;;;;;;;14.13;2.95;;;;;;;;;;5089787;28;20405;-70
2021/04/08 06:09:04;;;;;;;9.48;3.15;;;;;;;;;;5084158;28;20891;-70
2021/04/08 06:11:30;;;;;;;9.43;2.83;;;;;;;;;;5086277;28;20394;-70
2021/04/08 06:13:56;;;;;;;10.55;3.50;;;;;;;;;;5079680;28;20402;-71
2021/04/08 06:16:21;;;;;;;12.55;3.42;;;;;;;;;;5086757;28;20435;-71
2021/04/08 06:18:47;;;;;;;8.60;3.25;;;;;;;;;;5086046;28;20704;-71
2021/04/08 06:21:13;;;;;;;9.50;3.23;;;;;;;;;;5065859;28;21026;-70
2021/04/08 06:23:39;;;;;;;11.95;3.67;;;;;;;;;;5082569;28;20406;-70
2021/04/08 06:26:05;;;;;;;10.05;3.38;;;;;;;;;;5088110;28;20735;-72
2021/04/08 06:28:31;;;;;;;8.52;3.42;;;;;;;;;;5088807;28;20889;-71
2021/04/08 06:30:57;;;;;;;8.73;2.97;;;;;;;;;;5083717;28;20428;-71
2021/04/08 06:33:23;;;;;;;9.88;3.28;;;;;;;;;;5093033;28;20390;-71
2021/04/08 06:35:49;;;;;;;9.73;3.25;;;;;;;;;;5085090;28;20402;-71
2021/04/08 06:38:15;;;;;;;9.63;3.25;;;;;;;;;;5089169;28;20401;-71
2021/04/08 06:40:41;;;;;;;7.15;2.90;;;;;;;;;;5083886;28;20394;-70
2021/04/08 06:43:10;;;;;;;10.05;3.53;;;;;;;;;;5081982;28;20378;-71
2021/04/08 06:45:39;;;;;;;12.95;3.47;;;;;;;;;;5087072;28;20408;-71
2021/04/08 06:48:23;;;;;;;11.97;3.23;;;;;;;;;;5083265;28;20462;-70
2021/04/08 06:50:51;;;;;;;13.77;3.43;;;;;;;;;;5075886;28;20500;-71
2021/04/08 06:53:18;;;;;;;12.38;3.72;;;;;;;;;;5085452;28;20441;-70
2021/04/08 06:55:44;;;;;;;10.75;3.30;;;;;;;;;;5086839;28;20724;-71
2021/04/08 06:58:14;;;;;;;10.88;3.40;;;;;;;;;;5082036;28;20420;-73
2021/04/08 07:00:46;;;;;;;10.27;3.42;;;;;;;;;;5081337;28;20405;-73
2021/04/08 07:03:14;;;;;;;8.63;3.30;;;;;;;;;;5087981;28;20485;-71
2021/04/08 07:05:40;;;;;;;10.40;3.58;;;;;;;;;;5086867;28;20493;-72
2021/04/08 07:08:06;;;;;;;11.50;3.00;;;;;;;;;;5078610;28;20433;-71
2021/04/08 07:10:32;;;;;;;10.57;3.80;;;;;;;;;;5085006;28;20411;-71
2021/04/08 07:12:58;;;;;;;10.07;3.55;;;;;;;;;;5068013;28;20390;-71
2021/04/08 07:15:24;;;;;;;9.05;3.88;;;;;;;;;;5063768;28;20407;-71
2021/04/08 07:17:51;;;;;;;10.02;3.88;;;;;;;;;;5063898;28;20725;-71
2021/04/08 07:20:16;;;;;;;7.97;3.30;;;;;;;;;;5080515;28;20422;-71
2021/04/08 07:22:43;;;;;;;10.73;3.45;;;;;;;;;;5086588;28;20386;-71
2021/04/08 07:25:16;;;;;;;14.80;4.32;;;;;;;;;;5082800;28;20392;-72
2021/04/08 07:27:42;;;;;;;10.27;3.43;;;;;;;;;;5085678;28;20414;-71
2021/04/08 07:30:08;;;;;;;11.38;3.70;;;;;;;;;;5080528;28;20389;-71
2021/04/08 07:32:35;;;;;;;11.65;4.15;;;;;;;;;;5056731;28;20402;-70
2021/04/08 07:35:03;;;;;;;9.88;3.40;;;;;;;;;;5080897;28;20474;-71
2021/04/08 07:37:33;;;;;;;10.48;3.40;;;;;;;;;;5081453;28;21051;-71
2021/04/08 07:40:01;;;;;;;12.23;3.65;;;;;;;;;;5084318;28;20485;-71
2021/04/08 07:42:28;;;;;;;9.45;3.53;;;;;;;;;;5076403;28;20445;-70
2021/04/08 07:44:56;;;;;;;13.30;3.65;;;;;;;;;;5086593;28;20397;-71
2021/04/08 07:47:22;;;;;;;9.90;3.78;;;;;;;;;;5082562;28;20381;-70
2021/04/08 07:49:49;;;;;;;11.10;3.63;;;;;;;;;;5079905;28;20497;-72
2021/04/08 07:52:38;;;;;;;8.80;3.33;;;;;;;;;;5083532;28;20409;-70
2021/04/08 07:55:04;;;;;;;9.85;3.50;;;;;;;;;;5055065;28;20409;-70
2021/04/08 07:57:31;;;;;;;9.95;3.58;;;;;;;;;;5073463;28;20391;-71
2021/04/08 07:59:57;;;;;;;9.50;3.67;;;;;;;;;;5068443;28;20372;-70
2021/04/08 08:02:25;;;;;;;10.90;3.17;;;;;;;;;;5083264;28;20421;-71
2021/04/08 08:05:11;;;;;;;9.15;3.55;;;;;;;;;;5063180;28;20402;-70
2021/04/08 08:07:37;;;;;;;9.30;3.40;;;;;;;;;;5077865;28;20417;-70
2021/04/08 08:10:04;;;;;;;8.63;3.20;;;;;;;;;;5068962;28;20722;-71
2021/04/08 08:12:32;;;;;;;10.20;3.22;;;;;;;;;;5077087;28;20970;-70
2021/04/08 08:15:15;;;;;;;9.98;3.53;;;;;;;;;;5073420;28;20457;-70
2021/04/08 08:17:42;;;;;;;8.20;3.28;;;;;;;;;;5086345;28;20767;-70
2021/04/08 08:20:08;;;;;;;10.55;3.35;;;;;;;;;;5060128;28;20467;-70
2021/04/08 08:22:35;;;;;;;10.00;3.33;;;;;;;;;;5096653;28;20459;-71
2021/04/08 08:25:01;;;;;;;9.70;3.47;;;;;;;;;;5083919;28;20400;-70
2021/04/08 08:27:40;;;;;;;10.50;3.63;;;;;;;;;;5081184;28;20459;-70
2021/04/08 08:30:08;;;;;;;7.03;3.40;;;;;;;;;;5079229;28;20891;-70
2021/04/08 08:32:34;;;;;;;7.43;3.28;;;;;;;;;;5077831;28;20872;-71
2021/04/08 08:35:00;;;;;;;11.57;4.43;;;;;;;;;;5056915;28;20461;-69
2021/04/08 08:37:27;;;;;;;10.40;4.35;;;;;;;;;;5076901;28;20394;-71
2021/04/08 08:39:54;;;;;;;8.85;3.88;;;;;;;;;;5084230;28;21491;-71
2021/04/08 08:42:21;;;;;;;10.23;3.93;;;;;;;;;;5081987;28;21194;-72
2021/04/08 08:44:47;;;;;;;9.95;4.80;;;;;;;;;;5081368;28;20466;-70
2021/04/08 08:47:16;;;;;;;9.00;3.78;;;;;;;;;;5082798;28;20872;-70
2021/04/08 08:49:48;;;;;;;9.20;4.10;;;;;;;;;;5074565;28;20424;-71
2021/04/08 08:52:19;;;;;;;7.63;3.17;;;;;;;;;;5078670;28;20426;-71
2021/04/08 08:54:45;;;;;;;7.68;2.80;;;;;;;;;;5079783;28;20382;-71
2021/04/08 08:57:11;;;;;;;7.70;3.10;;;;;;;;;;5075401;28;20442;-71
2021/04/08 08:59:38;;;;;;;6.80;2.97;;;;;;;;;;5073141;28;20404;-72
2021/04/08 09:02:04;;;;;;;7.35;3.30;;;;;;;;;;5081798;28;20425;-72
2021/04/08 09:04:30;;;;;;;7.72;3.17;;;;;;;;;;5067720;28;20923;-71
2021/04/08 09:06:58;;;;;;;7.28;3.15;;;;;;;;;;5080196;28;20376;-71
2021/04/08 09:09:25;;;;;;;9.05;3.38;;;;;;;;;;5075587;28;20860;-71
2021/04/08 09:11:52;;;;;;;7.00;3.10;;;;;;;;;;5075479;28;21032;-70
2021/04/08 09:14:18;;;;;;;7.55;3.70;;;;;;;;;;5086397;28;20385;-70
2021/04/08 09:16:45;;;;;;;6.82;3.20;;;;;;;;;;5086959;28;20370;-71
2021/04/08 09:19:11;;;;;;;7.22;3.17;;;;;;;;;;5087091;28;20966;-71
2021/04/08 09:21:43;;;;;;;6.93;3.60;;;;;;;;;;5090463;28;20407;-70
2021/04/08 09:24:19;;;;;;;7.80;3.40;;;;;;;;;;5091238;28;20374;-70
2021/04/08 09:26:48;;;;;;;7.88;3.70;;;;;;;;;;5090689;28;20401;-71
2021/04/08 09:29:33;;;;;;;7.30;3.33;;;;;;;;;;5083982;28;20405;-72
2021/04/08 09:32:17;;;;;;;7.33;3.57;;;;;;;;;;5079561;28;20425;-74
2021/04/08 09:35:02;;;;;;;6.17;3.50;;;;;;;;;;5090233;28;20390;-72
2021/04/08 09:37:48;;;;;;;6.63;3.40;;;;;;;;;;5075733;28;20373;-73
2021/04/08 09:40:37;;;;;;;8.00;3.30;;;;;;;;;;5086046;28;20522;-73
2021/04/08 09:43:05;;;;;;;7.50;3.17;;;;;;;;;;5088079;28;20469;-72
2021/04/08 09:45:31;;;;;;;5.88;3.22;;;;;;;;;;5094243;28;20931;-72
2021/04/08 09:48:11;;;;;;;9.77;4.10;;;;;;;;;;5090588;28;20374;-72
2021/04/08 09:50:47;;;;;;;7.35;3.65;;;;;;;;;;5090099;28;20899;-72
2021/04/08 09:53:15;;;;;;;10.05;4.32;;;;;;;;;;5082326;28;20995;-72
2021/04/08 09:55:42;;;;;;;8.30;4.47;;;;;;;;;;5080459;28;20399;-72
2021/04/08 09:58:08;;;;;;;8.90;4.00;;;;;;;;;;5082628;28;20431;-73
2021/04/08 10:00:34;;;;;;;9.07;4.40;;;;;;;;;;5085327;28;20451;-74
2021/04/08 10:03:02;;;;;;;9.88;4.72;;;;;;;;;;5081848;28;20395;-71
2021/04/08 10:05:33;;;;;;;8.32;4.38;;;;;;;;;;5080615;28;20402;-73
2021/04/08 10:07:59;;;;;;;9.70;4.18;;;;;;;;;;5064340;28;20416;-73
2021/04/08 10:10:37;;;;;;;10.50;4.47;;;;;;;;;;5094809;28;20371;-72
2021/04/08 10:13:22;;;;;;;10.68;4.53;;;;;;;;;;5077675;28;20888;-73
2021/04/08 10:15:49;;;;;;;9.13;4.53;;;;;;;;;;5087191;28;21063;-74
2021/04/08 10:18:16;;;;;;;8.30;4.15;;;;;;;;;;5078394;28;20393;-71
2021/04/08 10:20:43;;;;;;;9.18;4.50;;;;;;;;;;5063572;28;20422;-72
2021/04/08 10:23:09;;;;;;;8.93;4.65;;;;;;;;;;5089175;28;20445;-72
2021/04/08 10:25:38;;;;;;;8.75;4.82;;;;;;;;;;5089873;28;20982;-73
2021/04/08 10:28:04;;;;;;;8.75;4.57;;;;;;;;;;5088349;28;20410;-74
2021/04/08 10:30:38;;;;;;;8.68;4.90;;;;;;;;;;5083627;28;20409;-73
2021/04/08 10:33:19;;;;;;;9.15;4.82;;;;;;;;;;5085848;28;20859;-72
2021/04/08 10:35:45;;;;;;;10.32;4.90;;;;;;;;;;5078389;28;20402;-72
2021/04/08 10:38:11;;;;;;;10.23;5.07;;;;;;;;;;5086155;28;20455;-73
2021/04/08 10:40:37;;;;;;;12.60;5.05;;;;;;;;;;5084021;28;21146;-70
2021/04/08 10:43:15;;;;;;;10.50;4.97;;;;;;;;;;5088569;28;20404;-70
2021/04/08 10:45:53;;;;;;;8.63;4.90;;;;;;;;;;5082208;28;20481;-72
2021/04/08 10:48:19;;;;;;;7.47;4.60;;;;;;;;;;5080584;28;20935;-73
2021/04/08 10:50:45;;;;;;;8.65;4.78;;;;;;;;;;5073690;28;20557;-73
2021/04/08 10:53:11;;;;;;;9.50;5.05;;;;;;;;;;5084171;28;20398;-73
2021/04/08 10:55:37;;;;;;;10.30;4.93;;;;;;;;;;5083356;28;20386;-73
2021/04/08 10:58:03;;;;;;;7.80;4.80;;;;;;;;;;5086172;28;20423;-72
2021/04/08 11:00:29;;;;;;;11.30;5.40;;;;;;;;;;5088492;28;20514;-73
2021/04/08 11:02:57;;;;;;;9.43;5.00;;;;;;;;;;5080265;28;20397;-73
2021/04/08 11:05:25;;;;;;;12.13;5.07;;;;;;;;;;5075340;28;20551;-71
2021/04/08 11:07:55;;;;;;;11.65;5.50;;;;;;;;;;5081347;28;20406;-72
2021/04/08 11:10:22;;;;;;;9.30;5.25;;;;;;;;;;5079206;28;20389;-71
2021/04/08 11:12:49;;;;;;;11.00;5.80;;;;;;;;;;5083208;28;20519;-70
2021/04/08 11:15:15;;;;;;;9.95;5.50;;;;;;;;;;5075169;28;20391;-70
2021/04/08 11:17:45;;;;;;;13.57;5.72;;;;;;;;;;5080888;28;20382;-71
2021/04/08 11:20:12;;;;;;;11.80;5.63;;;;;;;;;;5081578;28;20407;-71
2021/04/08 11:22:42;;;;;;;10.65;5.40;;;;;;;;;;5067405;28;20408;-70
2021/04/08 11:25:09;;;;;;;12.38;6.05;;;;;;;;;;5070455;28;20737;-70
2021/04/08 11:27:54;;;;;;;12.25;6.20;;;;;;;;;;5083247;28;20474;-72
2021/04/08 11:30:21;;;;;;;10.45;5.82;;;;;;;;;;5086087;28;20973;-72
2021/04/08 11:32:50;;;;;;;12.30;6.10;;;;;;;;;;5081151;28;20417;-71
2021/04/08 11:35:23;;;;;;;12.00;6.00;;;;;;;;;;5060560;28;20386;-72
2021/04/08 11:37:49;;;;;;;12.43;6.10;;;;;;;;;;5065072;28;20433;-72
2021/04/08 11:40:19;;;;;;;11.98;6.53;;;;;;;;;;5081120;28;20455;-71
2021/04/08 11:42:45;;;;;;;9.32;6.38;;;;;;;;;;5084674;28;20828;-71
2021/04/08 11:45:24;;;;;;;12.02;6.43;;;;;;;;;;5082117;28;20413;-72
2021/04/08 11:47:54;;;;;;;10.95;6.30;;;;;;;;;;5094111;28;20368;-71
2021/04/08 11:50:20;;;;;;;12.25;6.03;;;;;;;;;;5086463;28;20393;-72
2021/04/08 11:53:07;;;;;;;12.57;5.90;;;;;;;;;;5087689;28;20705;-73
2021/04/08 11:55:37;;;;;;;10.13;6.07;;;;;;;;;;5078915;28;20401;-71
2021/04/08 11:58:03;;;;;;;10.10;6.18;;;;;;;;;;5079533;28;20391;-71
2021/04/08 12:00:29;;;;;;;12.07;6.00;;;;;;;;;;5074232;28;20571;-72
2021/04/08 12:02:56;;;;;;;10.52;5.88;;;;;;;;;;5087339;28;20954;-72
2021/04/08 12:05:23;;;;;;;8.87;5.87;;;;;;;;;;5081023;28;20540;-72
2021/04/08 12:07:50;;;;;;;10.27;6.20;;;;;;;;;;5086376;28;20551;-73
2021/04/08 12:10:23;;;;;;;10.63;5.90;;;;;;;;;;5084739;28;20394;-72
2021/04/08 12:12:53;;;;;;;11.32;6.80;;;;;;;;;;5078490;28;20509;-73
2021/04/08 12:15:31;;;;;;;12.30;7.40;;;;;;;;;;5076299;28;20399;-72
2021/04/08 12:17:57;;;;;;;12.15;6.85;;;;;;;;;;5080876;28;20412;-71
2021/04/08 12:20:23;;;;;;;11.30;6.47;;;;;;;;;;5085467;28;21063;-72
2021/04/08 12:22:50;;;;;;;11.15;6.90;;;;;;;;;;5078049;28;20853;-72
2021/04/08 12:25:17;;;;;;;12.13;7.10;;;;;;;;;;5079198;28;20390;-74
2021/04/08 12:27:43;;;;;;;13.50;7.60;;;;;;;;;;5086690;28;20386;-73
2021/04/08 12:30:11;;;;;;;12.10;7.10;;;;;;;;;;5085196;28;20920;-73
2021/04/08 12:32:37;;;;;;;11.55;7.50;;;;;;;;;;5080796;28;20402;-72
2021/04/08 12:35:04;;;;;;;10.07;7.60;;;;;;;;;;5080034;28;20431;-72
2021/04/08 12:37:30;;;;;;;13.87;8.07;;;;;;;;;;5068764;28;20967;-72
2021/04/08 12:39:56;;;;;;;12.88;7.30;;;;;;;;;;5084630;28;21081;-73
2021/04/08 12:42:23;;;;;;;12.52;7.63;;;;;;;;;;5079719;28;20412;-71
2021/04/08 12:44:49;;;;;;;10.77;6.97;;;;;;;;;;5079840;28;20451;-70
2021/04/08 12:47:15;;;;;;;12.40;6.90;;;;;;;;;;5078562;28;20391;-71
2021/04/08 12:49:41;;;;;;;10.88;7.30;;;;;;;;;;5083587;28;20414;-73
2021/04/08 12:52:07;;;;;;;10.80;6.40;;;;;;;;;;5079627;28;20477;-72
2021/04/08 12:54:34;;;;;;;9.45;6.45;;;;;;;;;;5074626;28;20399;-70
2021/04/08 12:57:00;;;;;;;11.75;6.43;;;;;;;;;;5070306;28;20398;-71
2021/04/08 12:59:26;;;;;;;10.75;6.78;;;;;;;;;;5089017;28;20451;-71
2021/04/08 13:01:52;;;;;;;12.02;7.15;;;;;;;;;;5087998;28;20451;-71
2021/04/08 13:04:18;;;;;;;9.57;6.22;;;;;;;;;;5083199;28;21974;-72
2021/04/08 13:06:44;;;;;;;10.20;6.27;;;;;;;;;;5086774;28;20493;-70
2021/04/08 13:09:10;;;;;;;9.55;6.80;;;;;;;;;;5086936;28;20418;-70
2021/04/08 13:11:39;;;;;;;10.93;6.63;;;;;;;;;;5089247;28;20406;-70
2021/04/08 13:14:06;;;;;;;11.70;7.33;;;;;;;;;;5085540;28;20405;-72
2021/04/08 13:16:33;;;;;;;9.98;6.45;;;;;;;;;;5085970;28;20397;-71
2021/04/08 13:18:59;;;;;;;12.63;6.80;;;;;;;;;;5085871;28;20409;-70
2021/04/08 13:21:25;;;;;;;11.57;6.72;;;;;;;;;;5087609;28;20446;-71
2021/04/08 13:23:51;;;;;;;12.40;6.60;;;;;;;;;;5089232;28;20447;-71
2021/04/08 13:26:17;;;;;;;11.05;6.68;;;;;;;;;;5077674;28;20701;-70
2021/04/08 13:28:43;;;;;;;8.98;6.53;;;;;;;;;;5082676;28;20426;-70
2021/04/08 13:31:09;;;;;;;10.23;6.97;;;;;;;;;;5089431;28;20396;-71
2021/04/08 13:33:35;;;;;;;10.43;6.75;;;;;;;;;;5088398;28;20473;-72
2021/04/08 13:36:01;;;;;;;12.38;6.93;;;;;;;;;;5084882;28;20406;-71
2021/04/08 13:38:27;;;;;;;9.70;7.00;;;;;;;;;;5089158;28;20421;-70
2021/04/08 13:40:53;;;;;;;9.88;7.22;;;;;;;;;;5072023;28;20518;-70
2021/04/08 13:43:19;;;;;;;10.23;7.45;;;;;;;;;;5086599;28;21083;-71
2021/04/08 13:45:45;;;;;;;12.23;7.33;;;;;;;;;;5088338;28;20942;-71
2021/04/08 13:48:11;;;;;;;10.98;7.15;;;;;;;;;;5087194;28;21619;-70
2021/04/08 13:50:37;;;;;;;9.15;6.97;;;;;;;;;;5086941;28;20543;-71
2021/04/08 13:53:03;;;;;;;9.27;7.00;;;;;;;;;;5090160;28;20461;-71
2021/04/08 13:55:31;;;;;;;11.20;6.90;;;;;;;;;;5087047;28;20473;-72
2021/04/08 13:57:57;;;;;;;10.25;7.43;;;;;;;;;;5081439;28;20439;-71
2021/04/08 14:00:24;;;;;;;10.95;7.18;;;;;;;;;;5085366;28;20887;-72
2021/04/08 14:02:50;;;;;;;12.75;7.40;;;;;;;;;;5086525;28;20855;-70
2021/04/08 14:05:17;;;;;;;9.57;6.63;;;;;;;;;;5084842;28;20727;-71
2021/04/08 14:07:43;;;;;;;12.23;6.80;;;;;;;;;;5085918;28;20386;-71
2021/04/08 14:10:10;;;;;;;11.20;7.63;;;;;;;;;;5083914;28;20564;-70
2021/04/08 14:12:36;;;;;;;11.55;8.07;;;;;;;;;;5087319;28;20477;-70
2021/04/08 14:15:03;;;;;;;12.23;7.97;;;;;;;;;;5085671;28;20921;-70
2021/04/08 14:17:29;;;;;;;12.70;8.13;;;;;;;;;;5088747;28;20401;-70
2021/04/08 14:19:55;;;;;;;9.82;7.43;;;;;;;;;;5083927;28;20415;-69
2021/04/08 14:22:21;;;;;;;11.00;7.72;;;;;;;;;;5087592;28;20643;-70
2021/04/08 14:24:47;;;;;;;10.13;7.77;;;;;;;;;;5086127;28;20442;-70
2021/04/08 14:27:13;;;;;;;10.93;7.65;;;;;;;;;;5086442;28;20716;-70
2021/04/08 14:29:39;;;;;;;10.43;7.22;;;;;;;;;;5084614;28;20425;-70
2021/04/08 14:32:05;;;;;;;10.03;7.80;;;;;;;;;;5086818;28;20524;-71
2021/04/08 14:34:32;;;;;;;16.40;8.23;;;;;;;;;;5082318;28;20397;-71
2021/04/08 14:36:59;;;;;;;11.15;7.50;;;;;;;;;;5088552;28;20473;-72
2021/04/08 14:39:25;;;;;;;11.00;7.65;;;;;;;;;;5086030;28;20394;-73